Terminal Aerodrome Forecast
Issued by NWS Lake Charles, LA

Home | Current Version | Previous Version | Text Only | Print | Product List | Glossary On
Versions: 1 2 3 4 5 6 7 8 9 10 11 12 13 14 15 16 17 18 19
000
FTUS44 KLCH 070629 AAA
TAFBPT
TAF AMD
KBPT 070629Z 0706/0806 12010KT P6SM BKN025
      TEMPO 0707/0709 SCT025
     FM071500 15013KT P6SM SCT025 BKN250
     FM071700 16015G20KT P6SM VCSH BKN030
     FM080100 14010KT P6SM SCT025 BKN200=

USA.gov is the U.S. government's official web portal to all federal, state and local government web resources and services.